sensor_id;sensor_type;location;lat;lon;timestamp;pressure;altitude;pressure_sealevel;temperature;humidity
64053;BME280;50299;49.524;8.536;2023-08-24T00:00:18;100622.16;;;15.87;63.06
64053;BME280;50299;49.524;8.536;2023-08-24T00:02:45;100624.06;;;15.98;61.32
64053;BME280;50299;49.524;8.536;2023-08-24T00:05:11;100622.00;;;15.95;61.55
64053;BME280;50299;49.524;8.536;2023-08-24T00:07:39;100628.47;;;15.84;60.84
64053;BME280;50299;49.524;8.536;2023-08-24T00:10:06;100624.91;;;15.67;61.52
64053;BME280;50299;49.524;8.536;2023-08-24T00:12:33;100617.06;;;15.57;62.01
64053;BME280;50299;49.524;8.536;2023-08-24T00:15:00;100619.38;;;15.71;61.51
64053;BME280;50299;49.524;8.536;2023-08-24T00:17:26;100617.50;;;15.91;62.81
64053;BME280;50299;49.524;8.536;2023-08-24T00:19:53;100609.59;;;16.09;62.45
64053;BME280;50299;49.524;8.536;2023-08-24T00:22:19;100601.56;;;16.07;60.92
64053;BME280;50299;49.524;8.536;2023-08-24T00:24:46;100599.34;;;14.90;63.62
64053;BME280;50299;49.524;8.536;2023-08-24T00:27:12;100605.97;;;15.13;66.89
64053;BME280;50299;49.524;8.536;2023-08-24T00:29:40;100597.28;;;15.62;63.65
64053;BME280;50299;49.524;8.536;2023-08-24T00:32:07;100605.09;;;15.88;61.96
64053;BME280;50299;49.524;8.536;2023-08-24T00:34:34;100598.63;;;15.84;61.45
64053;BME280;50299;49.524;8.536;2023-08-24T00:37:01;100598.25;;;15.86;61.33
64053;BME280;50299;49.524;8.536;2023-08-24T00:39:28;100603.75;;;15.82;61.59
64053;BME280;50299;49.524;8.536;2023-08-24T00:41:55;100609.75;;;16.00;62.41
64053;BME280;50299;49.524;8.536;2023-08-24T00:44:21;100616.13;;;16.16;60.66
64053;BME280;50299;49.524;8.536;2023-08-24T00:46:48;100624.03;;;16.30;63.64
64053;BME280;50299;49.524;8.536;2023-08-24T00:49:14;100632.31;;;16.26;59.45
64053;BME280;50299;49.524;8.536;2023-08-24T00:51:42;100639.94;;;16.30;60.48
64053;BME280;50299;49.524;8.536;2023-08-24T00:54:09;100647.34;;;16.22;60.88
64053;BME280;50299;49.524;8.536;2023-08-24T00:56:36;100650.03;;;16.18;60.44
64053;BME280;50299;49.524;8.536;2023-08-24T00:59:03;100637.75;;;15.56;61.71
64053;BME280;50299;49.524;8.536;2023-08-24T01:01:32;100627.22;;;14.77;64.78
64053;BME280;50299;49.524;8.536;2023-08-24T01:03:59;100636.34;;;14.50;65.96
64053;BME280;50299;49.524;8.536;2023-08-24T01:06:26;100632.94;;;14.69;65.83
64053;BME280;50299;49.524;8.536;2023-08-24T01:08:52;100636.34;;;14.90;64.80
64053;BME280;50299;49.524;8.536;2023-08-24T01:11:41;100634.13;;;14.31;66.57
64053;BME280;50299;49.524;8.536;2023-08-24T01:14:41;100645.31;;;14.71;65.28
64053;BME280;50299;49.524;8.536;2023-08-24T01:17:14;100641.84;;;15.02;64.44
64053;BME280;50299;49.524;8.536;2023-08-24T01:19:45;100639.19;;;15.22;63.38
64053;BME280;50299;49.524;8.536;2023-08-24T01:22:23;100641.00;;;15.14;64.59
64053;BME280;50299;49.524;8.536;2023-08-24T01:25:05;100653.50;;;15.20;64.15
64053;BME280;50299;49.524;8.536;2023-08-24T01:27:34;100647.97;;;15.36;63.05
64053;BME280;50299;49.524;8.536;2023-08-24T01:30:03;100648.81;;;14.96;63.28
64053;BME280;50299;49.524;8.536;2023-08-24T01:32:34;100646.47;;;14.70;65.03
64053;BME280;50299;49.524;8.536;2023-08-24T01:35:05;100645.91;;;14.77;64.89
64053;BME280;50299;49.524;8.536;2023-08-24T01:37:34;100647.69;;;14.57;64.84
64053;BME280;50299;49.524;8.536;2023-08-24T01:40:04;100639.31;;;14.97;63.57
64053;BME280;50299;49.524;8.536;2023-08-24T01:42:43;100644.59;;;15.15;63.36
64053;BME280;50299;49.524;8.536;2023-08-24T01:45:14;100644.72;;;15.34;67.44
64053;BME280;50299;49.524;8.536;2023-08-24T01:47:42;100636.75;;;15.48;62.24
64053;BME280;50299;49.524;8.536;2023-08-24T01:50:10;100631.69;;;15.54;62.47
64053;BME280;50299;49.524;8.536;2023-08-24T01:52:37;100634.63;;;15.29;62.16
64053;BME280;50299;49.524;8.536;2023-08-24T01:55:04;100637.50;;;14.89;63.58
64053;BME280;50299;49.524;8.536;2023-08-24T01:57:30;100634.19;;;14.71;64.16
64053;BME280;50299;49.524;8.536;2023-08-24T01:59:57;100624.81;;;14.64;64.22
64053;BME280;50299;49.524;8.536;2023-08-24T02:02:24;100630.34;;;14.48;65.03
64053;BME280;50299;49.524;8.536;2023-08-24T02:04:51;100623.47;;;14.86;64.21
64053;BME280;50299;49.524;8.536;2023-08-24T02:07:19;100615.44;;;15.12;62.91
64053;BME280;50299;49.524;8.536;2023-08-24T02:09:45;100613.97;;;15.15;62.47
64053;BME280;50299;49.524;8.536;2023-08-24T02:12:12;100617.66;;;14.91;63.33
64053;BME280;50299;49.524;8.536;2023-08-24T02:14:38;100611.41;;;14.53;64.30
64053;BME280;50299;49.524;8.536;2023-08-24T02:17:05;100613.53;;;14.44;65.38
64053;BME280;50299;49.524;8.536;2023-08-24T02:19:31;100601.16;;;14.17;65.59
64053;BME280;50299;49.524;8.536;2023-08-24T02:21:57;100606.94;;;14.37;66.21
64053;BME280;50299;49.524;8.536;2023-08-24T02:24:24;100601.06;;;14.66;67.13
64053;BME280;50299;49.524;8.536;2023-08-24T02:26:51;100600.16;;;14.90;67.15
64053;BME280;50299;49.524;8.536;2023-08-24T02:29:17;100595.69;;;14.73;64.16
64053;BME280;50299;49.524;8.536;2023-08-24T02:31:43;100599.88;;;14.02;66.27
64053;BME280;50299;49.524;8.536;2023-08-24T02:34:10;100588.16;;;14.21;67.24
64053;BME280;50299;49.524;8.536;2023-08-24T02:36:36;100599.22;;;14.58;69.28
64053;BME280;50299;49.524;8.536;2023-08-24T02:39:03;100604.44;;;14.88;65.50
64053;BME280;50299;49.524;8.536;2023-08-24T02:41:30;100600.63;;;15.08;67.39
64053;BME280;50299;49.524;8.536;2023-08-24T02:43:56;100596.28;;;15.23;64.40
64053;BME280;50299;49.524;8.536;2023-08-24T02:46:22;100589.28;;;15.29;63.59
64053;BME280;50299;49.524;8.536;2023-08-24T02:48:49;100579.13;;;15.37;63.07
64053;BME280;50299;49.524;8.536;2023-08-24T02:51:15;100585.25;;;15.26;62.21
64053;BME280;50299;49.524;8.536;2023-08-24T02:53:42;100587.38;;;15.17;62.82
64053;BME280;50299;49.524;8.536;2023-08-24T02:56:08;100591.16;;;14.97;62.78
64053;BME280;50299;49.524;8.536;2023-08-24T02:58:35;100590.31;;;14.80;64.33
64053;BME280;50299;49.524;8.536;2023-08-24T03:01:05;100597.03;;;15.08;64.97
64053;BME280;50299;49.524;8.536;2023-08-24T03:03:34;100590.97;;;15.34;63.09
64053;BME280;50299;49.524;8.536;2023-08-24T03:06:04;100603.50;;;15.40;62.60
64053;BME280;50299;49.524;8.536;2023-08-24T03:08:31;100589.22;;;14.69;65.25
64053;BME280;50299;49.524;8.536;2023-08-24T03:11:00;100589.22;;;14.69;65.17
64053;BME280;50299;49.524;8.536;2023-08-24T03:13:27;100592.88;;;14.86;64.69
64053;BME280;50299;49.524;8.536;2023-08-24T03:15:54;100587.94;;;14.67;64.95
64053;BME280;50299;49.524;8.536;2023-08-24T03:18:21;100587.91;;;14.79;65.64
64053;BME280;50299;49.524;8.536;2023-08-24T03:20:48;100584.16;;;15.15;65.23
64053;BME280;50299;49.524;8.536;2023-08-24T03:23:15;100578.25;;;15.48;65.05
64053;BME280;50299;49.524;8.536;2023-08-24T03:25:42;100570.13;;;15.75;64.16
64053;BME280;50299;49.524;8.536;2023-08-24T03:28:09;100548.09;;;15.86;62.04
64053;BME280;50299;49.524;8.536;2023-08-24T03:30:38;100536.34;;;15.92;62.36
64053;BME280;50299;49.524;8.536;2023-08-24T03:33:05;100503.72;;;15.61;61.38
64053;BME280;50299;49.524;8.536;2023-08-24T03:35:32;100494.94;;;15.59;62.09
64053;BME280;50299;49.524;8.536;2023-08-24T03:38:00;100482.06;;;15.54;63.21
64053;BME280;50299;49.524;8.536;2023-08-24T03:40:26;100461.19;;;15.13;63.04
64053;BME280;50299;49.524;8.536;2023-08-24T03:42:53;100441.69;;;14.82;65.35
64053;BME280;50299;49.524;8.536;2023-08-24T03:45:20;100439.88;;;15.05;64.16
64053;BME280;50299;49.524;8.536;2023-08-24T03:47:47;100451.59;;;15.26;62.44
64053;BME280;50299;49.524;8.536;2023-08-24T03:50:14;100467.63;;;14.86;64.79
64053;BME280;50299;49.524;8.536;2023-08-24T03:52:41;100473.22;;;15.17;64.64
64053;BME280;50299;49.524;8.536;2023-08-24T03:55:08;100475.09;;;15.80;62.36
64053;BME280;50299;49.524;8.536;2023-08-24T03:57:35;100480.31;;;16.17;61.92
64053;BME280;50299;49.524;8.536;2023-08-24T04:00:02;100475.50;;;16.37;60.60
64053;BME280;50299;49.524;8.536;2023-08-24T04:02:32;100463.91;;;16.15;60.51
64053;BME280;50299;49.524;8.536;2023-08-24T04:04:58;100478.72;;;16.00;61.40
64053;BME280;50299;49.524;8.536;2023-08-24T04:07:25;100472.28;;;16.35;60.55
64053;BME280;50299;49.524;8.536;2023-08-24T04:09:51;100484.34;;;16.62;59.91
64053;BME280;50299;49.524;8.536;2023-08-24T04:12:18;100486.91;;;16.67;60.22
64053;BME280;50299;49.524;8.536;2023-08-24T04:14:44;100492.97;;;16.72;61.05
64053;BME280;50299;49.524;8.536;2023-08-24T04:17:10;100486.09;;;16.66;59.35
64053;BME280;50299;49.524;8.536;2023-08-24T04:19:39;100492.59;;;16.74;58.64
64053;BME280;50299;49.524;8.536;2023-08-24T04:22:05;100493.78;;;16.73;58.47
64053;BME280;50299;49.524;8.536;2023-08-24T04:24:31;100498.56;;;16.72;59.72
64053;BME280;50299;49.524;8.536;2023-08-24T04:26:58;100504.28;;;16.80;59.42
64053;BME280;50299;49.524;8.536;2023-08-24T04:29:24;100507.66;;;16.50;59.27
64053;BME280;50299;49.524;8.536;2023-08-24T04:31:51;100502.41;;;15.90;61.68
64053;BME280;50299;49.524;8.536;2023-08-24T04:34:17;100506.69;;;15.68;62.46
64053;BME280;50299;49.524;8.536;2023-08-24T04:36:44;100508.31;;;16.05;62.10
64053;BME280;50299;49.524;8.536;2023-08-24T04:39:10;100504.38;;;16.25;60.07
64053;BME280;50299;49.524;8.536;2023-08-24T04:41:36;100495.03;;;16.37;61.65
64053;BME280;50299;49.524;8.536;2023-08-24T04:44:03;100492.16;;;16.52;61.04
64053;BME280;50299;49.524;8.536;2023-08-24T04:46:29;100494.09;;;16.68;62.95
64053;BME280;50299;49.524;8.536;2023-08-24T04:48:56;100488.19;;;16.53;58.82
64053;BME280;50299;49.524;8.536;2023-08-24T04:51:23;100484.31;;;15.65;62.15
64053;BME280;50299;49.524;8.536;2023-08-24T04:53:52;100482.81;;;15.51;62.86
64053;BME280;50299;49.524;8.536;2023-08-24T04:56:21;100499.50;;;15.67;62.60
64053;BME280;50299;49.524;8.536;2023-08-24T04:58:55;100496.97;;;16.13;64.93
64053;BME280;50299;49.524;8.536;2023-08-24T05:01:24;100498.34;;;16.23;60.66
64053;BME280;50299;49.524;8.536;2023-08-24T05:03:56;100492.31;;;16.01;61.15
64053;BME280;50299;49.524;8.536;2023-08-24T05:06:23;100487.94;;;16.00;61.24
64053;BME280;50299;49.524;8.536;2023-08-24T05:08:53;100491.06;;;16.18;60.99
64053;BME280;50299;49.524;8.536;2023-08-24T05:11:22;100494.44;;;16.27;61.04
64053;BME280;50299;49.524;8.536;2023-08-24T05:13:51;100491.44;;;16.56;60.54
64053;BME280;50299;49.524;8.536;2023-08-24T05:16:18;100496.78;;;16.84;59.99
64053;BME280;50299;49.524;8.536;2023-08-24T05:18:46;100502.31;;;17.03;58.21
64053;BME280;50299;49.524;8.536;2023-08-24T05:21:12;100517.44;;;16.79;58.26
64053;BME280;50299;49.524;8.536;2023-08-24T05:23:41;100526.94;;;16.20;60.43
64053;BME280;50299;49.524;8.536;2023-08-24T05:26:08;100541.72;;;15.85;62.64
64053;BME280;50299;49.524;8.536;2023-08-24T05:28:37;100564.22;;;15.45;63.54
64053;BME280;50299;49.524;8.536;2023-08-24T05:31:04;100585.31;;;15.30;64.01
64053;BME280;50299;49.524;8.536;2023-08-24T05:33:30;100609.25;;;15.47;64.38
64053;BME280;50299;49.524;8.536;2023-08-24T05:35:59;100623.00;;;15.40;65.24
64053;BME280;50299;49.524;8.536;2023-08-24T05:38:25;100643.03;;;15.45;65.13
64053;BME280;50299;49.524;8.536;2023-08-24T05:40:54;100648.72;;;15.65;65.19
64053;BME280;50299;49.524;8.536;2023-08-24T05:43:22;100652.00;;;15.11;67.48
64053;BME280;50299;49.524;8.536;2023-08-24T05:45:49;100668.97;;;15.34;66.78
64053;BME280;50299;49.524;8.536;2023-08-24T05:48:15;100672.94;;;15.33;67.77
64053;BME280;50299;49.524;8.536;2023-08-24T05:50:44;100677.03;;;15.23;67.64
64053;BME280;50299;49.524;8.536;2023-08-24T05:53:11;100672.69;;;15.69;67.20
64053;BME280;50299;49.524;8.536;2023-08-24T05:55:38;100664.03;;;15.27;69.27
64053;BME280;50299;49.524;8.536;2023-08-24T05:58:04;100656.69;;;15.35;68.72
64053;BME280;50299;49.524;8.536;2023-08-24T06:00:31;100643.41;;;15.60;68.51
64053;BME280;50299;49.524;8.536;2023-08-24T06:02:57;100631.00;;;15.73;67.47
64053;BME280;50299;49.524;8.536;2023-08-24T06:05:27;100627.91;;;15.15;69.37
64053;BME280;50299;49.524;8.536;2023-08-24T06:07:53;100627.75;;;15.71;69.15
64053;BME280;50299;49.524;8.536;2023-08-24T06:10:21;100610.69;;;15.57;68.86
64053;BME280;50299;49.524;8.536;2023-08-24T06:12:47;100619.38;;;14.95;70.99
64053;BME280;50299;49.524;8.536;2023-08-24T06:15:17;100605.00;;;14.93;69.75
64053;BME280;50299;49.524;8.536;2023-08-24T06:17:46;100612.34;;;15.29;70.29
64053;BME280;50299;49.524;8.536;2023-08-24T06:20:15;100625.78;;;15.40;69.33
64053;BME280;50299;49.524;8.536;2023-08-24T06:22:41;100628.81;;;15.82;67.29
64053;BME280;50299;49.524;8.536;2023-08-24T06:25:08;100624.69;;;15.44;68.82
64053;BME280;50299;49.524;8.536;2023-08-24T06:27:35;100614.34;;;16.08;67.03
64053;BME280;50299;49.524;8.536;2023-08-24T06:30:05;100604.84;;;15.93;66.80
64053;BME280;50299;49.524;8.536;2023-08-24T06:32:33;100597.94;;;15.56;68.35
64053;BME280;50299;49.524;8.536;2023-08-24T06:35:00;100580.56;;;15.78;67.78
64053;BME280;50299;49.524;8.536;2023-08-24T06:37:27;100570.72;;;16.00;67.19
64053;BME280;50299;49.524;8.536;2023-08-24T06:39:53;100565.50;;;15.47;69.14
64053;BME280;50299;49.524;8.536;2023-08-24T06:42:19;100552.59;;;15.59;68.07
64053;BME280;50299;49.524;8.536;2023-08-24T06:44:49;100558.63;;;15.29;69.61
64053;BME280;50299;49.524;8.536;2023-08-24T06:47:18;100554.94;;;15.88;68.43
64053;BME280;50299;49.524;8.536;2023-08-24T06:49:50;100548.50;;;15.37;69.30
64053;BME280;50299;49.524;8.536;2023-08-24T06:52:16;100547.41;;;15.41;69.46
64053;BME280;50299;49.524;8.536;2023-08-24T06:54:43;100546.91;;;15.87;67.25
64053;BME280;50299;49.524;8.536;2023-08-24T06:57:15;100563.00;;;16.48;65.67
64053;BME280;50299;49.524;8.536;2023-08-24T06:59:41;100561.13;;;16.91;63.67
64053;BME280;50299;49.524;8.536;2023-08-24T07:02:08;100554.81;;;17.17;62.70
64053;BME280;50299;49.524;8.536;2023-08-24T07:04:37;100557.19;;;17.38;62.06
64053;BME280;50299;49.524;8.536;2023-08-24T07:07:06;100546.41;;;17.89;61.81
64053;BME280;50299;49.524;8.536;2023-08-24T07:09:33;100553.69;;;17.94;59.85
64053;BME280;50299;49.524;8.536;2023-08-24T07:12:00;100538.81;;;18.43;61.01
64053;BME280;50299;49.524;8.536;2023-08-24T07:14:26;100541.94;;;18.75;57.83
64053;BME280;50299;49.524;8.536;2023-08-24T07:16:55;100538.91;;;18.87;56.99
64053;BME280;50299;49.524;8.536;2023-08-24T07:19:25;100539.03;;;19.42;55.20
64053;BME280;50299;49.524;8.536;2023-08-24T07:21:54;100534.09;;;19.73;54.14
64053;BME280;50299;49.524;8.536;2023-08-24T07:24:21;100539.97;;;19.57;54.12
64053;BME280;50299;49.524;8.536;2023-08-24T07:27:10;100538.59;;;19.88;53.47
64053;BME280;50299;49.524;8.536;2023-08-24T07:29:36;100540.94;;;19.76;53.93
64053;BME280;50299;49.524;8.536;2023-08-24T07:32:03;100541.41;;;20.68;53.41
64053;BME280;50299;49.524;8.536;2023-08-24T07:34:30;100560.47;;;21.36;51.44
64053;BME280;50299;49.524;8.536;2023-08-24T07:36:56;100563.66;;;21.49;47.87
64053;BME280;50299;49.524;8.536;2023-08-24T07:39:23;100561.25;;;21.68;48.48
64053;BME280;50299;49.524;8.536;2023-08-24T07:41:50;100567.50;;;22.51;46.78
64053;BME280;50299;49.524;8.536;2023-08-24T07:44:17;100559.41;;;22.71;45.49
64053;BME280;50299;49.524;8.536;2023-08-24T07:46:47;100566.16;;;22.88;43.86
64053;BME280;50299;49.524;8.536;2023-08-24T07:49:16;100561.28;;;22.92;45.38
64053;BME280;50299;49.524;8.536;2023-08-24T07:51:45;100569.47;;;23.35;45.18
64053;BME280;50299;49.524;8.536;2023-08-24T07:54:13;100565.19;;;23.64;42.51
64053;BME280;50299;49.524;8.536;2023-08-24T07:56:41;100572.78;;;23.71;43.40
64053;BME280;50299;49.524;8.536;2023-08-24T07:59:08;100579.09;;;23.41;42.65
64053;BME280;50299;49.524;8.536;2023-08-24T08:01:35;100571.56;;;23.72;43.15
64053;BME280;50299;49.524;8.536;2023-08-24T08:04:02;100582.38;;;23.84;42.53
64053;BME280;50299;49.524;8.536;2023-08-24T08:06:32;100575.53;;;23.82;43.68
64053;BME280;50299;49.524;8.536;2023-08-24T08:09:03;100565.47;;;23.81;42.58
64053;BME280;50299;49.524;8.536;2023-08-24T08:11:30;100546.13;;;23.79;43.03
64053;BME280;50299;49.524;8.536;2023-08-24T08:13:57;100541.50;;;24.00;41.69
64053;BME280;50299;49.524;8.536;2023-08-24T08:16:23;100532.19;;;24.03;41.99
64053;BME280;50299;49.524;8.536;2023-08-24T08:18:50;100525.44;;;24.61;42.66
64053;BME280;50299;49.524;8.536;2023-08-24T08:21:17;100513.28;;;25.19;41.21
64053;BME280;50299;49.524;8.536;2023-08-24T08:23:51;100499.28;;;25.35;39.66
64053;BME280;50299;49.524;8.536;2023-08-24T08:26:17;100485.50;;;25.37;39.95
64053;BME280;50299;49.524;8.536;2023-08-24T08:28:44;100469.75;;;25.36;37.70
64053;BME280;50299;49.524;8.536;2023-08-24T08:31:11;100466.91;;;24.89;39.11
64053;BME280;50299;49.524;8.536;2023-08-24T08:33:38;100461.81;;;25.27;39.04
64053;BME280;50299;49.524;8.536;2023-08-24T08:36:04;100457.03;;;25.24;37.77
64053;BME280;50299;49.524;8.536;2023-08-24T08:38:33;100447.97;;;24.86;39.70
64053;BME280;50299;49.524;8.536;2023-08-24T08:41:03;100439.00;;;24.91;37.30
64053;BME280;50299;49.524;8.536;2023-08-24T08:43:33;100441.78;;;24.06;38.39
64053;BME280;50299;49.524;8.536;2023-08-24T08:46:00;100454.63;;;24.45;39.70
64053;BME280;50299;49.524;8.536;2023-08-24T08:48:29;100456.19;;;24.77;38.39
64053;BME280;50299;49.524;8.536;2023-08-24T08:50:58;100451.69;;;24.52;40.47
64053;BME280;50299;49.524;8.536;2023-08-24T08:53:28;100448.66;;;24.67;38.62
64053;BME280;50299;49.524;8.536;2023-08-24T08:55:57;100446.81;;;25.30;39.28
64053;BME280;50299;49.524;8.536;2023-08-24T08:58:31;100443.44;;;25.82;37.23
64053;BME280;50299;49.524;8.536;2023-08-24T09:00:58;100438.84;;;26.28;37.84
64053;BME280;50299;49.524;8.536;2023-08-24T09:03:31;100436.19;;;26.74;36.70
64053;BME280;50299;49.524;8.536;2023-08-24T09:05:59;100431.97;;;27.15;34.44
64053;BME280;50299;49.524;8.536;2023-08-24T09:08:32;100430.88;;;27.58;33.70
64053;BME280;50299;49.524;8.536;2023-08-24T09:11:01;100422.19;;;27.77;32.64
64053;BME280;50299;49.524;8.536;2023-08-24T09:13:32;100417.25;;;27.94;32.81
64053;BME280;50299;49.524;8.536;2023-08-24T09:16:06;100408.88;;;28.16;31.57
64053;BME280;50299;49.524;8.536;2023-08-24T09:18:36;100399.91;;;28.18;32.71
64053;BME280;50299;49.524;8.536;2023-08-24T09:21:16;100406.75;;;28.59;32.50
64053;BME280;50299;49.524;8.536;2023-08-24T09:23:55;100393.31;;;28.97;29.25
64053;BME280;50299;49.524;8.536;2023-08-24T09:26:36;100387.84;;;29.03;31.37
64053;BME280;50299;49.524;8.536;2023-08-24T09:29:14;100386.94;;;28.93;30.07
64053;BME280;50299;49.524;8.536;2023-08-24T09:31:42;100363.44;;;29.15;29.85
64053;BME280;50299;49.524;8.536;2023-08-24T09:34:12;100353.19;;;29.52;29.79
64053;BME280;50299;49.524;8.536;2023-08-24T09:36:39;100346.13;;;29.22;31.04
64053;BME280;50299;49.524;8.536;2023-08-24T09:39:06;100350.69;;;29.19;29.34
64053;BME280;50299;49.524;8.536;2023-08-24T09:41:43;100345.72;;;29.33;30.02
64053;BME280;50299;49.524;8.536;2023-08-24T09:44:10;100346.69;;;29.51;31.57
64053;BME280;50299;49.524;8.536;2023-08-24T09:46:40;100344.28;;;29.72;30.13
64053;BME280;50299;49.524;8.536;2023-08-24T09:49:08;100341.53;;;29.59;29.61
64053;BME280;50299;49.524;8.536;2023-08-24T09:51:39;100342.06;;;29.67;29.63
64053;BME280;50299;49.524;8.536;2023-08-24T09:54:10;100325.84;;;29.55;29.60
64053;BME280;50299;49.524;8.536;2023-08-24T09:56:41;100321.19;;;29.48;29.75
64053;BME280;50299;49.524;8.536;2023-08-24T09:59:13;100318.72;;;29.37;30.01
64053;BME280;50299;49.524;8.536;2023-08-24T10:01:44;100315.59;;;29.66;30.56
64053;BME280;50299;49.524;8.536;2023-08-24T10:04:21;100312.81;;;29.75;29.59
64053;BME280;50299;49.524;8.536;2023-08-24T10:06:52;100300.13;;;29.67;28.99
64053;BME280;50299;49.524;8.536;2023-08-24T10:09:31;100296.97;;;29.74;28.34
64053;BME280;50299;49.524;8.536;2023-08-24T10:12:00;100301.00;;;29.86;29.81
64053;BME280;50299;49.524;8.536;2023-08-24T10:14:41;100294.94;;;30.06;30.51
64053;BME280;50299;49.524;8.536;2023-08-24T10:17:11;100295.19;;;30.30;27.81
64053;BME280;50299;49.524;8.536;2023-08-24T10:19:43;100290.94;;;29.94;27.96
64053;BME280;50299;49.524;8.536;2023-08-24T10:22:12;100282.50;;;30.31;28.18
64053;BME280;50299;49.524;8.536;2023-08-24T10:24:39;100282.41;;;30.44;27.17
64053;BME280;50299;49.524;8.536;2023-08-24T10:27:11;100273.25;;;30.77;26.99
64053;BME280;50299;49.524;8.536;2023-08-24T10:29:38;100285.03;;;30.88;27.08
64053;BME280;50299;49.524;8.536;2023-08-24T10:32:05;100281.53;;;30.93;26.59
64053;BME280;50299;49.524;8.536;2023-08-24T10:34:33;100277.44;;;31.03;27.27
64053;BME280;50299;49.524;8.536;2023-08-24T10:37:08;100278.22;;;31.04;26.86
64053;BME280;50299;49.524;8.536;2023-08-24T10:39:44;100278.81;;;30.80;26.58
64053;BME280;50299;49.524;8.536;2023-08-24T10:42:13;100280.28;;;31.03;28.05
64053;BME280;50299;49.524;8.536;2023-08-24T10:44:45;100264.72;;;31.13;26.57
64053;BME280;50299;49.524;8.536;2023-08-24T10:47:25;100263.31;;;31.36;26.23
64053;BME280;50299;49.524;8.536;2023-08-24T10:52:30;100260.22;;;32.01;26.03
64053;BME280;50299;49.524;8.536;2023-08-24T10:55:01;100253.03;;;32.14;25.31
64053;BME280;50299;49.524;8.536;2023-08-24T10:57:39;100248.50;;;32.32;24.28
64053;BME280;50299;49.524;8.536;2023-08-24T11:00:12;100233.06;;;32.38;24.42
64053;BME280;50299;49.524;8.536;2023-08-24T11:02:49;100237.16;;;32.85;23.93
64053;BME280;50299;49.524;8.536;2023-08-24T11:05:20;100241.50;;;32.81;24.59
64053;BME280;50299;49.524;8.536;2023-08-24T11:08:03;100233.41;;;32.94;24.32
64053;BME280;50299;49.524;8.536;2023-08-24T11:10:45;100234.41;;;33.06;23.80
64053;BME280;50299;49.524;8.536;2023-08-24T11:13:17;100232.19;;;33.39;23.67
64053;BME280;50299;49.524;8.536;2023-08-24T11:15:50;100240.59;;;33.58;22.20
64053;BME280;50299;49.524;8.536;2023-08-24T11:18:25;100240.38;;;33.76;22.58
64053;BME280;50299;49.524;8.536;2023-08-24T11:21:00;100229.31;;;33.69;21.46
64053;BME280;50299;49.524;8.536;2023-08-24T11:23:27;100224.78;;;33.18;22.58
64053;BME280;50299;49.524;8.536;2023-08-24T11:25:57;100219.78;;;32.89;22.29
64053;BME280;50299;49.524;8.536;2023-08-24T11:28:28;100219.38;;;32.57;22.99
64053;BME280;50299;49.524;8.536;2023-08-24T11:30:58;100213.09;;;33.07;22.55
64053;BME280;50299;49.524;8.536;2023-08-24T11:33:28;100198.84;;;32.83;22.63
64053;BME280;50299;49.524;8.536;2023-08-24T11:35:56;100193.19;;;33.12;23.65
64053;BME280;50299;49.524;8.536;2023-08-24T11:38:25;100178.16;;;33.47;21.24
64053;BME280;50299;49.524;8.536;2023-08-24T11:40:53;100181.31;;;32.51;22.66
64053;BME280;50299;49.524;8.536;2023-08-24T11:43:24;100177.69;;;32.65;24.16
64053;BME280;50299;49.524;8.536;2023-08-24T11:45:51;100190.03;;;33.10;24.08
64053;BME280;50299;49.524;8.536;2023-08-24T11:48:18;100183.00;;;33.41;23.54
64053;BME280;50299;49.524;8.536;2023-08-24T11:50:48;100181.34;;;33.34;22.33
64053;BME280;50299;49.524;8.536;2023-08-24T11:53:17;100192.09;;;33.39;23.89
64053;BME280;50299;49.524;8.536;2023-08-24T11:55:44;100175.00;;;33.60;23.14
64053;BME280;50299;49.524;8.536;2023-08-24T11:58:30;100175.75;;;33.75;22.67
64053;BME280;50299;49.524;8.536;2023-08-24T12:00:57;100171.31;;;33.74;22.08
64053;BME280;50299;49.524;8.536;2023-08-24T12:03:24;100177.06;;;33.95;21.74
64053;BME280;50299;49.524;8.536;2023-08-24T12:05:51;100173.31;;;33.88;23.82
64053;BME280;50299;49.524;8.536;2023-08-24T12:08:18;100162.63;;;34.04;23.36
64053;BME280;50299;49.524;8.536;2023-08-24T12:10:45;100168.63;;;34.26;23.07
64053;BME280;50299;49.524;8.536;2023-08-24T12:13:12;100169.72;;;34.08;22.86
64053;BME280;50299;49.524;8.536;2023-08-24T12:15:40;100159.47;;;34.22;23.40
64053;BME280;50299;49.524;8.536;2023-08-24T12:18:12;100155.38;;;34.29;23.44
64053;BME280;50299;49.524;8.536;2023-08-24T12:20:40;100156.16;;;34.09;22.09
64053;BME280;50299;49.524;8.536;2023-08-24T12:23:12;100149.97;;;33.96;22.21
64053;BME280;50299;49.524;8.536;2023-08-24T12:25:43;100136.63;;;33.92;22.44
64053;BME280;50299;49.524;8.536;2023-08-24T12:28:15;100133.97;;;34.04;24.28
64053;BME280;50299;49.524;8.536;2023-08-24T12:30:51;100122.91;;;33.97;23.81
64053;BME280;50299;49.524;8.536;2023-08-24T12:33:28;100112.84;;;33.86;23.46
64053;BME280;50299;49.524;8.536;2023-08-24T12:35:58;100104.91;;;33.96;24.13
64053;BME280;50299;49.524;8.536;2023-08-24T12:38:28;100104.28;;;34.07;22.69
64053;BME280;50299;49.524;8.536;2023-08-24T12:40:55;100096.72;;;33.89;23.13
64053;BME280;50299;49.524;8.536;2023-08-24T12:43:24;100104.25;;;33.86;23.54
64053;BME280;50299;49.524;8.536;2023-08-24T12:45:54;100105.88;;;33.93;22.31
64053;BME280;50299;49.524;8.536;2023-08-24T12:48:21;100102.00;;;34.11;23.13
64053;BME280;50299;49.524;8.536;2023-08-24T12:50:49;100107.13;;;34.27;21.95
64053;BME280;50299;49.524;8.536;2023-08-24T12:53:15;100108.56;;;34.17;22.26
64053;BME280;50299;49.524;8.536;2023-08-24T12:55:43;100109.94;;;34.22;22.29
64053;BME280;50299;49.524;8.536;2023-08-24T12:58:10;100109.06;;;34.36;23.51
64053;BME280;50299;49.524;8.536;2023-08-24T13:00:36;100098.38;;;34.36;22.58